Time;durP1;ratioP1;P1;durP2;ratioP2;P2;SDS_P1;SDS_P2;PMS_P1;PMS_P2;Temp;Humidity;BMP_temperature;BMP_pressure;BME280_temperature;BME280_humidity;BME280_pressure;Samples;Min_cycle;Max_cycle;Signal;HPM_P1;HPM_P2
2021/04/24 00:01:41;;;;;;;1999.90;999.90;;;;;;;7.32;96.30;-18104.81;4942873;29;20208;-32
2021/04/24 00:04:28;;;;;;;1999.90;999.90;;;;;;;7.25;97.39;-18103.06;4942425;29;20312;-34
2021/04/24 00:07:13;;;;;;;1999.90;999.90;;;;;;;7.38;95.79;-18106.56;4942943;29;20606;-33
2021/04/24 00:10:00;;;;;;;1999.90;999.90;;;;;;;7.29;96.42;-18104.16;4942686;29;20223;-34
2021/04/24 00:12:46;;;;;;;1999.90;999.90;;;;;;;7.32;97.31;-18104.97;4942048;29;20552;-34
2021/04/24 00:15:33;;;;;;;1999.90;999.90;;;;;;;7.23;97.62;-18102.69;4941942;29;20223;-34
2021/04/24 00:18:21;;;;;;;1999.90;999.90;;;;;;;7.25;97.08;-18103.06;4942303;29;20204;-33
2021/04/24 00:21:08;;;;;;;1999.90;999.90;;;;;;;7.25;98.13;-18103.06;4942195;29;20221;-36
2021/04/24 00:24:02;;;;;;;1999.90;999.90;;;;;;;7.20;98.57;-18101.72;4942044;29;20476;-35
2021/04/24 00:26:48;;;;;;;1999.90;999.90;;;;;;;6.97;99.83;-18095.72;4941999;29;20498;-33
2021/04/24 00:29:35;;;;;;;1999.90;999.90;;;;;;;7.07;100.00;-18098.25;4941827;29;20327;-37
2021/04/24 00:32:20;;;;;;;1999.90;999.90;;;;;;;7.00;100.00;-18096.38;4941909;29;20374;-37
2021/04/24 00:35:08;;;;;;;1999.90;999.90;;;;;;;7.20;100.00;-18101.88;4941829;29;20207;-35
2021/04/24 00:37:54;;;;;;;1999.90;999.90;;;;;;;7.12;100.00;-18099.72;4942293;29;20220;-34
2021/04/24 00:40:41;;;;;;;1999.90;999.90;;;;;;;7.07;100.00;-18098.38;4941699;29;20635;-32
2021/04/24 00:43:27;;;;;;;1999.90;999.90;;;;;;;7.16;100.00;-18100.66;4941330;29;20211;-32
2021/04/24 00:46:15;;;;;;;1999.90;999.90;;;;;;;6.94;100.00;-18094.91;4941745;29;20602;-35
2021/04/24 00:49:01;;;;;;;1999.90;999.90;;;;;;;7.03;100.00;-18097.19;4941538;29;20299;-34
2021/04/24 00:51:49;;;;;;;1999.90;999.90;;;;;;;6.88;100.00;-18093.44;4941454;29;20249;-33
2021/04/24 00:54:35;;;;;;;1999.90;999.90;;;;;;;6.87;100.00;-18093.16;4941747;29;20232;-34
2021/04/24 00:57:22;;;;;;;1999.90;999.90;;;;;;;6.67;100.00;-18087.66;4941494;29;20667;-34
2021/04/24 01:00:12;;;;;;;1999.90;999.90;;;;;;;6.77;100.00;-18090.34;4941432;29;20659;-33
2021/04/24 01:02:59;;;;;;;1999.90;999.90;;;;;;;6.90;100.00;-18093.81;4941567;29;20204;-33
2021/04/24 01:05:45;;;;;;;1999.90;999.90;;;;;;;6.72;100.00;-18089.00;4940994;29;20204;-34
2021/04/24 01:08:30;;;;;;;1999.90;999.90;;;;;;;6.36;100.00;-18079.63;4940824;29;20199;-35
2021/04/24 01:11:21;;;;;;;1999.90;999.90;;;;;;;6.35;100.00;-18079.22;4940907;29;20212;-37
2021/04/24 01:14:06;;;;;;;1999.90;999.90;;;;;;;6.41;100.00;-18080.81;4940704;29;20304;-35
2021/04/24 01:16:53;;;;;;;1999.90;999.90;;;;;;;6.32;100.00;-18078.53;4941153;29;20199;-33
2021/04/24 01:19:40;;;;;;;1999.90;999.90;;;;;;;6.17;100.00;-18074.50;4941392;29;20204;-35
2021/04/24 01:22:27;;;;;;;1999.90;999.90;;;;;;;6.11;100.00;-18073.03;4941041;29;20731;-37
2021/04/24 01:25:15;;;;;;;1999.90;999.90;;;;;;;6.06;100.00;-18071.69;4941277;29;20453;-35
2021/04/24 01:28:02;;;;;;;1999.90;999.90;;;;;;;6.00;100.00;-18070.09;4940987;29;20720;-33
2021/04/24 01:30:48;;;;;;;1999.90;999.90;;;;;;;5.89;100.00;-18067.13;4940581;29;20568;-37
2021/04/24 01:33:34;;;;;;;1999.90;999.90;;;;;;;5.78;100.00;-18064.31;4940807;29;20464;-34
2021/04/24 01:36:21;;;;;;;1999.90;999.90;;;;;;;5.81;100.00;-18064.97;4940618;29;20448;-35
2021/04/24 01:39:11;;;;;;;1999.90;999.90;;;;;;;5.73;100.00;-18062.84;4940781;29;20444;-38
2021/04/24 01:41:57;;;;;;;1999.90;999.90;;;;;;;5.63;100.00;-18060.16;4940524;29;20456;-35
2021/04/24 01:44:44;;;;;;;1999.90;999.90;;;;;;;5.70;100.00;-18062.16;4940727;29;20448;-34
2021/04/24 01:47:29;;;;;;;1999.90;999.90;;;;;;;5.51;100.00;-18057.06;4940636;29;21150;-38
2021/04/24 01:50:20;;;;;;;1999.90;999.90;;;;;;;5.59;100.00;-18059.22;4940826;29;20487;-34
2021/04/24 01:53:13;;;;;;;1999.90;999.90;;;;;;;5.52;100.00;-18057.34;4940678;29;20736;-37
2021/04/24 01:56:00;;;;;;;1999.90;999.90;;;;;;;5.31;100.00;-18051.81;4940340;29;20988;-38
2021/04/24 01:58:46;;;;;;;1999.90;999.90;;;;;;;5.33;100.00;-18052.22;4940141;29;20947;-34
2021/04/24 02:01:33;;;;;;;1999.90;999.90;;;;;;;5.38;100.00;-18053.72;4939718;29;20584;-36
2021/04/24 02:04:21;;;;;;;1999.90;999.90;;;;;;;5.26;100.00;-18050.47;4940159;29;20589;-36
2021/04/24 02:07:10;;;;;;;1999.90;999.90;;;;;;;5.31;100.00;-18051.69;4940394;29;20452;-36
2021/04/24 02:09:56;;;;;;;1999.90;999.90;;;;;;;5.12;100.00;-18046.88;4940328;29;20558;-36
2021/04/24 02:12:43;;;;;;;1999.90;999.90;;;;;;;5.13;100.00;-18047.13;4940536;29;20448;-33
2021/04/24 02:15:29;;;;;;;1999.90;999.90;;;;;;;5.01;100.00;-18043.78;4940320;29;20524;-38
2021/04/24 02:18:16;;;;;;;1999.90;999.90;;;;;;;5.07;100.00;-18045.53;4940249;29;20512;-37
2021/04/24 02:21:06;;;;;;;1999.90;999.90;;;;;;;5.11;100.00;-18046.47;4940249;29;20447;-38
2021/04/24 02:23:56;;;;;;;1999.90;999.90;;;;;;;5.17;100.00;-18048.22;4939533;29;20453;-35
2021/04/24 02:26:43;;;;;;;1999.90;999.90;;;;;;;5.05;100.00;-18044.97;4940384;29;20886;-34
2021/04/24 02:29:30;;;;;;;1999.90;999.90;;;;;;;5.08;100.00;-18045.78;4939527;29;20568;-36
2021/04/24 02:32:17;;;;;;;1999.90;999.90;;;;;;;5.03;100.00;-18044.44;4939849;29;20464;-41
2021/04/24 02:35:05;;;;;;;1999.90;999.90;;;;;;;5.05;100.00;-18044.84;4940092;29;20448;-36
2021/04/24 02:37:53;;;;;;;1999.90;999.90;;;;;;;4.98;100.00;-18043.09;4939849;29;20451;-35
2021/04/24 02:40:42;;;;;;;1999.90;999.90;;;;;;;4.90;100.00;-18040.81;4939655;29;20449;-36
2021/04/24 02:43:33;;;;;;;1999.90;999.90;;;;;;;4.82;100.00;-18038.81;4939723;29;20471;-36
2021/04/24 02:46:19;;;;;;;1999.90;999.90;;;;;;;4.81;100.00;-18038.53;4940193;29;20453;-39
2021/04/24 02:49:05;;;;;;;1999.90;999.90;;;;;;;4.85;100.00;-18039.59;4939737;29;20452;-35
2021/04/24 02:51:52;;;;;;;1999.90;999.90;;;;;;;4.85;100.00;-18039.59;4939724;29;20452;-39
2021/04/24 02:54:38;;;;;;;1999.90;999.90;;;;;;;4.64;100.00;-18033.97;4939680;29;20452;-35
2021/04/24 02:57:31;;;;;;;1999.90;999.90;;;;;;;4.62;100.00;-18033.44;4939106;29;20453;-33
2021/04/24 03:00:20;;;;;;;1999.90;999.90;;;;;;;4.81;100.00;-18038.66;4939931;29;20474;-35
2021/04/24 03:03:09;;;;;;;1999.90;999.90;;;;;;;4.72;100.00;-18036.13;4939565;29;20456;-39
2021/04/24 03:05:58;;;;;;;1999.90;999.90;;;;;;;4.77;100.00;-18037.47;4939698;29;20449;-33
2021/04/24 03:08:44;;;;;;;1999.90;999.90;;;;;;;4.81;100.00;-18038.53;4939615;29;20532;-34
2021/04/24 03:11:31;;;;;;;1999.90;999.90;;;;;;;4.76;100.00;-18037.19;4939752;29;20516;-37
2021/04/24 03:14:19;;;;;;;1999.90;999.90;;;;;;;4.82;100.00;-18038.94;4939439;29;20496;-35
2021/04/24 03:17:05;;;;;;;1999.90;999.90;;;;;;;4.68;100.00;-18035.03;4939371;29;20741;-34
2021/04/24 03:19:51;;;;;;;1999.90;999.90;;;;;;;4.72;100.00;-18036.13;4939582;29;20551;-33
2021/04/24 03:22:43;;;;;;;1999.90;999.90;;;;;;;4.61;100.00;-18033.28;4939636;29;20452;-33
2021/04/24 03:25:33;;;;;;;1999.90;999.90;;;;;;;4.59;100.00;-18032.75;4938624;29;20445;-35
2021/04/24 03:28:24;;;;;;;1999.90;999.90;;;;;;;4.54;100.00;-18031.41;4939778;29;20453;-34
2021/04/24 03:31:13;;;;;;;1999.90;999.90;;;;;;;4.52;100.00;-18030.88;4939614;29;20483;-35
2021/04/24 03:33:59;;;;;;;1999.90;999.90;;;;;;;4.45;100.00;-18029.13;4939531;29;20456;-33
2021/04/24 03:36:46;;;;;;;1999.90;999.90;;;;;;;4.43;100.00;-18028.47;4939453;29;20806;-35
2021/04/24 03:39:32;;;;;;;1999.90;999.90;;;;;;;4.35;100.00;-18026.44;4939236;29;20444;-36
2021/04/24 03:42:18;;;;;;;1999.90;999.90;;;;;;;4.37;100.00;-18026.84;4939376;29;20452;-37
2021/04/24 03:45:17;;;;;;;1999.90;999.90;;;;;;;4.21;100.00;-18022.69;4939492;29;20520;-35
2021/04/24 03:48:04;;;;;;;1999.90;999.90;;;;;;;4.26;100.00;-18023.91;4939062;29;20452;-36
2021/04/24 03:50:50;;;;;;;1999.90;999.90;;;;;;;4.21;100.00;-18022.69;4939516;29;20487;-36
2021/04/24 03:53:37;;;;;;;1999.90;999.90;;;;;;;4.17;100.00;-18021.47;4939285;29;20504;-33
2021/04/24 03:56:23;;;;;;;1999.90;999.90;;;;;;;4.12;100.00;-18020.28;4939030;29;20452;-34
2021/04/24 03:59:10;;;;;;;1999.90;999.90;;;;;;;4.05;100.00;-18018.38;4939301;29;20484;-33
2021/04/24 04:01:55;;;;;;;1999.90;999.90;;;;;;;3.95;100.00;-18015.69;4939308;29;20481;-39
2021/04/24 04:04:41;;;;;;;1999.90;999.90;;;;;;;3.93;100.00;-18015.16;4939209;29;20761;-37
2021/04/24 04:07:28;;;;;;;1999.90;999.90;;;;;;;4.13;100.00;-18020.66;4939154;29;20445;-34
2021/04/24 04:10:20;;;;;;;1999.90;999.90;;;;;;;3.98;100.00;-18016.50;4942040;29;20488;-36
2021/04/24 04:13:12;;;;;;;1999.90;999.90;;;;;;;4.08;100.00;-18019.19;4942140;29;20496;-38
2021/04/24 04:15:59;;;;;;;1999.90;999.90;;;;;;;4.09;100.00;-18019.47;4942202;29;20460;-33
2021/04/24 04:18:44;;;;;;;1999.90;999.90;;;;;;;4.04;100.00;-18018.13;4942595;29;20551;-37
2021/04/24 04:21:30;;;;;;;1999.90;999.90;;;;;;;3.99;100.00;-18016.91;4942257;29;20445;-37
2021/04/24 04:24:17;;;;;;;1999.90;999.90;;;;;;;3.96;100.00;-18016.09;4942080;29;20448;-38
2021/04/24 04:27:05;;;;;;;1999.90;999.90;;;;;;;4.02;100.00;-18017.56;4942342;29;20451;-35
2021/04/24 04:29:53;;;;;;;1999.90;999.90;;;;;;;4.01;100.00;-18017.44;4942452;29;20918;-34
2021/04/24 04:32:40;;;;;;;1999.90;999.90;;;;;;;4.07;100.00;-18018.94;4942014;29;20444;-38
2021/04/24 04:35:27;;;;;;;1999.90;999.90;;;;;;;4.00;100.00;-18017.03;4942489;29;20672;-37
2021/04/24 04:38:13;;;;;;;1999.90;999.90;;;;;;;4.06;100.00;-18018.66;4942285;29;20604;-35
2021/04/24 04:41:00;;;;;;;1999.90;999.90;;;;;;;4.12;100.00;-18020.28;4942790;29;20471;-34
2021/04/24 04:43:47;;;;;;;1999.90;999.90;;;;;;;4.14;100.00;-18020.94;4961597;29;20452;-38
2021/04/24 04:46:33;;;;;;;1999.90;999.90;;;;;;;4.20;100.00;-18022.41;4961452;29;20901;-39
2021/04/24 04:49:20;;;;;;;1999.90;999.90;;;;;;;4.22;100.00;-18022.81;4960777;29;20455;-36
2021/04/24 04:52:06;;;;;;;1999.90;999.90;;;;;;;4.24;100.00;-18023.34;4960774;29;20468;-37
2021/04/24 04:54:54;;;;;;;1999.90;999.90;;;;;;;4.33;100.00;-18025.91;4961224;29;21304;-33
2021/04/24 04:57:41;;;;;;;1999.90;999.90;;;;;;;4.35;100.00;-18026.31;4960916;29;20456;-35
2021/04/24 05:00:28;;;;;;;1999.90;999.90;;;;;;;4.34;100.00;-18026.19;4961205;29;20850;-38
2021/04/24 05:03:14;;;;;;;1999.90;999.90;;;;;;;4.46;100.00;-18029.41;4960733;29;20834;-35
2021/04/24 05:06:01;;;;;;;1999.90;999.90;;;;;;;4.46;100.00;-18029.28;4961072;29;20890;-35
2021/04/24 05:08:47;;;;;;;1999.90;999.90;;;;;;;4.49;100.00;-18030.22;4960623;29;20462;-36
2021/04/24 05:11:35;;;;;;;1999.90;999.90;;;;;;;4.56;100.00;-18031.81;4960355;29;20500;-37
2021/04/24 05:14:21;;;;;;;1999.90;999.90;;;;;;;4.64;100.00;-18033.97;4959835;29;20452;-37
2021/04/24 05:17:11;;;;;;;1999.90;999.90;;;;;;;4.87;100.00;-18040.16;4959773;29;20455;-37
2021/04/24 05:19:57;;;;;;;1999.90;999.90;;;;;;;5.00;100.00;-18043.50;4959415;28;20547;-37
2021/04/24 05:22:45;;;;;;;1999.90;999.90;;;;;;;4.91;100.00;-18041.22;4960186;29;20786;-37
2021/04/24 05:25:34;;;;;;;1999.90;999.90;;;;;;;5.26;100.00;-18050.34;4960278;29;20448;-34
2021/04/24 05:28:20;;;;;;;1999.90;999.90;;;;;;;5.46;100.00;-18055.84;4959233;29;20454;-34
2021/04/24 05:31:06;;;;;;;1999.90;999.90;;;;;;;5.59;100.00;-18059.22;4960011;29;20499;-33
2021/04/24 05:33:54;;;;;;;1999.90;999.90;;;;;;;5.70;100.00;-18062.16;4960161;29;20452;-34
2021/04/24 05:36:40;;;;;;;1999.90;999.90;;;;;;;5.79;100.00;-18064.59;4959953;29;20447;-37
2021/04/24 05:39:27;;;;;;;1999.90;999.90;;;;;;;6.29;100.00;-18077.59;4959844;29;20467;-38
2021/04/24 05:42:13;;;;;;;1999.90;999.90;;;;;;;7.13;100.00;-18100.00;4959747;29;20447;-36
2021/04/24 05:44:59;;;;;;;1999.90;999.90;;;;;;;7.66;100.00;-18113.94;4960112;29;20731;-46
2021/04/24 05:47:48;;;;;;;1999.90;999.90;;;;;;;9.19;98.55;-18154.38;4959511;29;20199;-35
2021/04/24 05:50:36;;;;;;;1999.90;999.90;;;;;;;9.84;88.00;-18171.50;4959709;29;20357;-35
2021/04/24 05:53:24;;;;;;;1999.90;999.90;;;;;;;10.17;85.73;-18180.22;5401067;23;20287;-30
2021/04/24 05:56:10;;;;;;;1999.90;999.90;;;;;;;10.25;84.23;-18182.34;4959849;29;20266;-31
2021/04/24 05:58:57;;;;;;;1999.90;999.90;;;;;;;10.58;84.24;-18191.03;4960558;29;20311;-30
2021/04/24 06:01:46;;;;;;;1999.90;999.90;;;;;;;10.28;83.47;-18183.16;4960078;29;20206;-30
2021/04/24 06:04:34;;;;;;;1999.90;999.90;;;;;;;9.55;90.14;-18163.75;4960479;29;20245;-30
2021/04/24 06:07:22;;;;;;;1999.90;999.90;;;;;;;9.77;87.76;-18169.50;4960808;29;20207;-30
2021/04/24 06:10:13;;;;;;;1999.90;999.90;;;;;;;8.80;93.98;-18143.94;4961156;29;20336;-31
2021/04/24 06:12:59;;;;;;;1999.90;999.90;;;;;;;9.48;95.25;-18161.88;4961345;29;20196;-31
2021/04/24 06:15:45;;;;;;;1999.90;999.90;;;;;;;9.56;93.27;-18164.03;4961750;29;20199;-30
2021/04/24 06:18:31;;;;;;;1999.90;999.90;;;;;;;9.64;97.89;-18166.16;4962628;29;20211;-30
2021/04/24 06:21:17;;;;;;;1999.90;999.90;;;;;;;10.14;94.64;-18179.28;4964488;29;20335;-31
2021/04/24 06:24:07;;;;;;;1999.90;999.90;;;;;;;10.51;91.12;-18189.16;4967946;29;20364;-31
2021/04/24 06:26:53;;;;;;;1999.90;999.90;;;;;;;11.14;87.45;-18205.63;4961808;29;20204;-30
2021/04/24 06:29:38;;;;;;;1999.90;999.90;;;;;;;11.91;82.38;-18226.06;4960687;29;20281;-31
2021/04/24 06:32:25;;;;;;;1999.90;999.90;;;;;;;12.14;78.05;-18232.06;4961067;28;20293;-29
2021/04/24 06:35:12;;;;;;;1999.90;999.90;;;;;;;12.02;81.25;-18229.00;4961212;29;20223;-29
2021/04/24 06:37:58;;;;;;;1999.90;999.90;;;;;;;12.28;79.74;-18235.81;4960700;29;20616;-30
2021/04/24 06:40:51;;;;;;;1999.90;999.90;;;;;;;11.93;84.34;-18226.47;4960243;29;20598;-29
2021/04/24 06:43:38;;;;;;;1999.90;999.90;;;;;;;13.62;74.91;-18270.91;4961132;29;20488;-30
2021/04/24 06:46:23;;;;;;;1999.90;999.90;;;;;;;12.74;76.98;-18247.94;4960568;29;20206;-30
2021/04/24 06:49:13;;;;;;;1999.90;999.90;;;;;;;12.32;81.33;-18236.75;4960129;29;20201;-33
2021/04/24 06:52:05;;;;;;;1999.90;999.90;;;;;;;11.30;86.38;-18210.03;4959064;29;20208;-33
2021/04/24 06:54:53;;;;;;;1999.90;999.90;;;;;;;12.00;91.00;-18228.31;4960249;29;20204;-33
2021/04/24 06:57:40;;;;;;;1999.90;999.90;;;;;;;11.65;87.29;-18219.09;4959519;29;20211;-34
2021/04/24 07:00:27;;;;;;;1999.90;999.90;;;;;;;11.83;88.34;-18223.91;4960732;29;20200;-34
2021/04/24 07:03:15;;;;;;;1999.90;999.90;;;;;;;12.62;81.60;-18244.75;4961392;29;20319;-34
2021/04/24 07:06:01;;;;;;;1999.90;999.90;;;;;;;12.07;81.00;-18230.34;4960670;29;20356;-33
2021/04/24 07:08:51;;;;;;;1999.90;999.90;;;;;;;13.31;78.70;-18262.91;4963626;29;20205;-33
2021/04/24 07:11:37;;;;;;;1999.90;999.90;;;;;;;13.63;74.30;-18271.31;4965262;29;20223;-33
2021/04/24 07:14:26;;;;;;;1999.90;999.90;;;;;;;13.76;73.75;-18274.63;4964126;29;20257;-35
2021/04/24 07:17:12;;;;;;;1999.90;999.90;;;;;;;12.91;77.03;-18252.22;4963841;29;20356;-33
2021/04/24 07:19:59;;;;;;;1999.90;999.90;;;;;;;12.10;80.91;-18231.00;4961611;29;20207;-35
2021/04/24 07:22:45;;;;;;;1999.90;999.90;;;;;;;12.42;81.89;-18239.53;4957041;29;20289;-32
2021/04/24 07:25:32;;;;;;;1999.90;999.90;;;;;;;11.48;84.81;-18214.69;4944167;29;20611;-34
2021/04/24 07:28:19;;;;;;;1999.90;999.90;;;;;;;11.08;88.60;-18204.16;4940365;29;20206;-33
2021/04/24 07:31:08;;;;;;;1999.90;999.90;;;;;;;11.45;88.51;-18213.75;4940284;29;20231;-33
2021/04/24 07:33:58;;;;;;;1999.90;999.90;;;;;;;10.91;86.90;-18199.59;4940543;29;20290;-33
2021/04/24 07:36:45;;;;;;;1999.90;999.90;;;;;;;10.54;89.72;-18189.84;4940107;29;20261;-33
2021/04/24 07:39:31;;;;;;;1999.90;999.90;;;;;;;10.66;91.54;-18193.19;4940826;29;20200;-33
2021/04/24 07:42:18;;;;;;;1999.90;999.90;;;;;;;13.07;77.74;-18256.63;4940956;29;20276;-34
2021/04/24 07:45:05;;;;;;;1999.90;999.90;;;;;;;13.75;72.33;-18274.38;4943359;29;20343;-35
2021/04/24 07:47:52;;;;;;;1999.90;999.90;;;;;;;12.81;73.68;-18249.56;4943393;29;20207;-32
2021/04/24 07:50:40;;;;;;;1999.90;999.90;;;;;;;13.41;71.63;-18265.44;4944558;29;20235;-33
2021/04/24 07:53:27;;;;;;;1999.90;999.90;;;;;;;13.45;72.39;-18266.63;4943043;29;20256;-33
2021/04/24 07:56:15;;;;;;;1999.90;999.90;;;;;;;13.43;69.40;-18266.09;4943374;29;20267;-32
2021/04/24 07:59:02;;;;;;;1999.90;999.90;;;;;;;12.94;70.70;-18253.16;4943528;29;20209;-33
2021/04/24 08:01:53;;;;;;;1999.90;999.90;;;;;;;12.30;70.94;-18236.34;4942878;29;20256;-33
2021/04/24 08:04:42;;;;;;;1999.90;999.90;;;;;;;12.68;70.37;-18246.34;4942496;29;20611;-33
2021/04/24 08:07:28;;;;;;;1999.90;999.90;;;;;;;11.74;72.90;-18221.50;4943454;29;20200;-33
2021/04/24 08:10:15;;;;;;;1999.90;999.90;;;;;;;12.86;71.84;-18250.88;4943115;29;20475;-33
2021/04/24 08:13:06;;;;;;;1999.90;999.90;;;;;;;11.82;72.21;-18223.66;4943210;29;20275;-33
2021/04/24 08:15:53;;;;;;;1999.90;999.90;;;;;;;12.77;69.80;-18248.75;4942782;29;20670;-33
2021/04/24 08:18:39;;;;;;;1999.90;999.90;;;;;;;12.79;76.12;-18249.03;4942772;29;20272;-33
2021/04/24 08:21:29;;;;;;;1999.90;999.90;;;;;;;12.79;68.13;-18249.16;4942011;29;20567;-33
2021/04/24 08:24:16;;;;;;;1999.90;999.90;;;;;;;12.65;67.84;-18245.41;4942645;29;20205;-33
2021/04/24 08:27:06;;;;;;;1999.90;999.90;;;;;;;14.56;61.74;-18295.69;4943046;29;20213;-33
2021/04/24 08:29:54;;;;;;;1999.90;999.90;;;;;;;13.27;60.16;-18261.69;4941894;29;20205;-33
2021/04/24 08:32:40;;;;;;;1999.90;999.90;;;;;;;14.23;58.65;-18286.91;4942754;29;20209;-32
2021/04/24 08:35:27;;;;;;;1999.90;999.90;;;;;;;12.52;65.07;-18242.09;4943222;29;20696;-32
2021/04/24 08:38:14;;;;;;;1999.90;999.90;;;;;;;13.95;62.31;-18279.72;4942428;29;20353;-36
2021/04/24 08:41:03;;;;;;;1999.90;999.90;;;;;;;15.49;58.42;-18320.06;4942212;29;20197;-32
2021/04/24 08:43:56;;;;;;;1999.90;999.90;;;;;;;16.27;50.75;-18340.56;4942261;29;20611;-32
2021/04/24 08:46:41;;;;;;;1999.90;999.90;;;;;;;15.92;51.00;-18331.25;4946414;29;20657;-34
2021/04/24 08:49:28;;;;;;;1999.90;999.90;;;;;;;15.26;54.19;-18314.09;4941627;29;20201;-33
2021/04/24 08:52:14;;;;;;;1999.90;999.90;;;;;;;15.13;54.18;-18310.75;4941734;29;20233;-33
2021/04/24 08:55:07;;;;;;;1999.90;999.90;;;;;;;14.15;58.18;-18284.91;4941542;29;20604;-32
2021/04/24 08:57:58;;;;;;;1999.90;999.90;;;;;;;12.60;65.08;-18244.09;4942185;29;20212;-35
2021/04/24 09:00:46;;;;;;;1999.90;999.90;;;;;;;11.55;69.81;-18216.56;4942533;29;20207;-34
2021/04/24 09:03:33;;;;;;;1999.90;999.90;;;;;;;11.25;71.61;-18208.56;4953593;29;20215;-33
2021/04/24 09:06:21;;;;;;;1999.90;999.90;;;;;;;11.34;70.55;-18211.09;4953484;29;20304;-33
2021/04/24 09:09:11;;;;;;;1999.90;999.90;;;;;;;12.83;68.49;-18250.22;4941943;29;20209;-32
2021/04/24 09:12:01;;;;;;;1999.90;999.90;;;;;;;14.20;59.78;-18286.09;4954790;29;20290;-32
2021/04/24 09:14:49;;;;;;;1999.90;999.90;;;;;;;12.99;64.94;-18254.50;4963064;29;20500;-31
2021/04/24 09:17:54;;;;;;;1999.90;999.90;;;;;;;16.32;53.99;-18341.78;4961222;29;20332;-32
2021/04/24 09:20:48;;;;;;;1999.90;999.90;;;;;;;16.15;53.39;-18337.38;4961155;29;20196;-33
2021/04/24 09:23:36;;;;;;;1999.90;999.90;;;;;;;16.42;51.14;-18344.44;4959733;29;20374;-34
2021/04/24 09:26:25;;;;;;;1999.90;999.90;;;;;;;16.65;51.13;-18350.56;4960130;29;20287;-33
2021/04/24 09:29:13;;;;;;;1999.90;999.90;;;;;;;15.80;52.63;-18328.34;4959392;29;20208;-32
2021/04/24 09:32:13;;;;;;;1999.90;999.90;;;;;;;16.78;52.93;-18354.00;4960306;29;20235;-32
2021/04/24 09:35:06;;;;;;;1999.90;999.90;;;;;;;16.78;50.20;-18353.88;4965219;29;20303;-34
2021/04/24 09:38:01;;;;;;;1999.90;999.90;;;;;;;16.47;52.11;-18345.75;4960647;29;20207;-34
2021/04/24 09:41:23;;;;;;;1999.90;999.90;;;;;;;13.66;61.18;-18272.09;4960953;29;20655;-32
2021/04/24 09:44:09;;;;;;;1999.90;999.90;;;;;;;13.89;60.63;-18278.09;4961951;29;20256;-33
2021/04/24 09:46:59;;;;;;;1999.90;999.90;;;;;;;14.81;57.35;-18302.38;4961986;29;20200;-32
2021/04/24 09:49:45;;;;;;;1999.90;999.90;;;;;;;13.68;60.37;-18272.50;4962197;29;20208;-34
2021/04/24 09:52:31;;;;;;;1999.90;999.90;;;;;;;13.61;61.37;-18270.63;4947965;29;20496;-32
2021/04/24 09:55:35;;;;;;;1999.90;999.90;;;;;;;13.20;63.58;-18259.97;4941547;29;20627;-34
2021/04/24 09:58:28;;;;;;;1999.90;999.90;;;;;;;14.31;60.72;-18289.03;4940767;29;20205;-31
2021/04/24 10:01:24;;;;;;;1999.90;999.90;;;;;;;14.37;61.19;-18290.63;4940585;29;20204;-31
2021/04/24 10:04:12;;;;;;;1999.90;999.90;;;;;;;14.89;59.89;-18304.38;4945315;29;20249;-32
2021/04/24 10:06:58;;;;;;;1999.90;999.90;;;;;;;14.32;59.16;-18289.44;4939901;29;20496;-32
2021/04/24 10:09:44;;;;;;;1999.90;999.90;;;;;;;13.93;61.22;-18279.16;4940105;29;20224;-30
2021/04/24 10:12:30;;;;;;;1999.90;999.90;;;;;;;14.72;58.15;-18299.84;4941724;29;20694;-32
2021/04/24 10:15:17;;;;;;;1999.90;999.90;;;;;;;15.06;59.31;-18308.88;4939986;29;20444;-30
2021/04/24 10:18:04;;;;;;;1999.90;999.90;;;;;;;15.45;53.49;-18319.16;4941277;29;20279;-32
2021/04/24 10:20:58;;;;;;;1999.90;999.90;;;;;;;15.12;54.09;-18310.34;4941823;29;20484;-31
2021/04/24 10:23:44;;;;;;;1999.90;999.90;;;;;;;15.37;50.21;-18317.00;4939900;29;20507;-34
2021/04/24 10:26:32;;;;;;;1999.90;999.90;;;;;;;16.20;49.97;-18338.84;4941531;29;20494;-31
2021/04/24 10:29:19;;;;;;;1999.90;999.90;;;;;;;15.61;52.12;-18323.28;4940297;29;20200;-31
2021/04/24 10:32:08;;;;;;;1999.90;999.90;;;;;;;16.05;51.67;-18334.84;4941926;29;20244;-31
2021/04/24 10:34:59;;;;;;;1999.90;999.90;;;;;;;15.44;53.45;-18318.75;4961231;29;20204;-31
2021/04/24 10:37:47;;;;;;;1999.90;999.90;;;;;;;14.23;58.30;-18286.91;4959528;29;20204;-31
2021/04/24 10:40:33;;;;;;;1999.90;999.90;;;;;;;15.15;58.88;-18311.16;4959454;29;20467;-31
2021/04/24 10:43:21;;;;;;;1999.90;999.90;;;;;;;15.28;54.88;-18314.47;4960042;29;20500;-31
2021/04/24 10:46:24;;;;;;;1999.90;999.90;;;;;;;15.46;54.67;-18319.41;4958764;29;20207;-31
2021/04/24 10:49:20;;;;;;;1999.90;999.90;;;;;;;17.20;48.50;-18365.03;4962582;29;20283;-31
2021/04/24 10:52:17;;;;;;;1999.90;999.90;;;;;;;14.75;52.63;-18300.63;4935234;29;677838;-31
2021/04/24 10:55:42;;;;;;;1999.90;999.90;;;;;;;13.55;59.74;-18269.03;4958028;29;20499;-30
2021/04/24 10:58:33;;;;;;;1999.90;999.90;;;;;;;14.73;57.55;-18300.09;4960670;29;20203;-30
2021/04/24 11:01:21;;;;;;;1999.90;999.90;;;;;;;15.74;52.86;-18326.75;4957752;29;20204;-31
2021/04/24 11:04:45;;;;;;;1999.90;999.90;;;;;;;14.88;57.14;-18303.97;4961312;29;20223;-31
2021/04/24 11:07:31;;;;;;;1999.90;999.90;;;;;;;14.66;57.86;-18298.38;4946972;29;20229;-31
2021/04/24 11:10:29;;;;;;;1999.90;999.90;;;;;;;13.67;59.76;-18272.25;4958809;29;20302;-31
2021/04/24 11:13:17;;;;;;;1999.90;999.90;;;;;;;14.38;58.34;-18291.03;4963160;29;20204;-31
2021/04/24 11:16:13;;;;;;;1999.90;999.90;;;;;;;14.98;56.44;-18306.63;4962751;29;20203;-31
2021/04/24 11:19:03;;;;;;;1999.90;999.90;;;;;;;14.78;53.99;-18301.44;4941833;29;20205;-31
2021/04/24 11:21:51;;;;;;;1999.90;999.90;;;;;;;14.85;53.32;-18303.16;4943618;29;20205;-31
2021/04/24 11:24:37;;;;;;;1999.90;999.90;;;;;;;16.02;49.65;-18334.06;4948087;29;20204;-31
2021/04/24 11:28:03;;;;;;;1999.90;999.90;;;;;;;15.91;50.29;-18331.00;4944045;29;20221;-31
2021/04/24 11:30:54;;;;;;;1999.90;999.90;;;;;;;15.75;50.27;-18326.88;4949181;29;20223;-31
2021/04/24 11:33:42;;;;;;;1999.90;999.90;;;;;;;15.86;49.89;-18329.78;4973383;29;20269;-31
2021/04/24 11:36:29;;;;;;;1999.90;999.90;;;;;;;15.24;55.59;-18313.41;4974873;29;20485;-31
2021/04/24 11:39:14;;;;;;;1999.90;999.90;;;;;;;16.08;52.85;-18335.66;4972482;29;20256;-31
2021/04/24 11:42:30;;;;;;;1999.90;999.90;;;;;;;17.38;46.78;-18369.56;4971803;29;20200;-31
2021/04/24 11:45:37;;;;;;;1999.90;999.90;;;;;;;17.03;46.44;-18360.41;4963398;29;20198;-31
2021/04/24 11:49:15;;;;;;;1999.90;999.90;;;;;;;15.20;52.90;-18312.47;4961532;29;20360;-31
2021/04/24 11:52:10;;;;;;;1999.90;999.90;;;;;;;14.10;57.80;-18283.56;4964059;29;20239;-32
2021/04/24 11:54:55;;;;;;;1999.90;999.90;;;;;;;15.37;56.64;-18317.00;4962280;29;20471;-31
2021/04/24 11:57:41;;;;;;;1999.90;999.90;;;;;;;16.64;49.15;-18350.28;4962810;29;20306;-31
2021/04/24 12:00:33;;;;;;;1999.90;999.90;;;;;;;16.60;45.44;-18349.22;4961617;29;20228;-31
2021/04/24 12:03:34;;;;;;;1999.90;999.90;;;;;;;15.62;48.17;-18323.41;4962556;29;20205;-31
2021/04/24 12:06:40;;;;;;;1999.90;999.90;;;;;;;15.79;48.80;-18327.94;4962317;29;20702;-31
2021/04/24 12:09:27;;;;;;;1999.90;999.90;;;;;;;17.29;45.19;-18367.31;4961786;29;20203;-32
2021/04/24 12:12:14;;;;;;;1999.90;999.90;;;;;;;15.81;48.48;-18328.47;4963019;29;20495;-31
2021/04/24 12:15:10;;;;;;;1999.90;999.90;;;;;;;15.33;51.73;-18315.81;4971027;29;20196;-31
2021/04/24 12:17:59;;;;;;;1999.90;999.90;;;;;;;16.61;46.33;-18349.34;4970703;29;20511;-31
2021/04/24 12:20:45;;;;;;;1999.90;999.90;;;;;;;15.83;50.28;-18329.13;4962420;29;20225;-31
2021/04/24 12:23:36;;;;;;;1999.90;999.90;;;;;;;17.20;47.13;-18365.03;4962656;29;20603;-31